Crab Meadow, New York
Current Conditions -  °F | °C
As of 2:53 AM on Wednesday 22 Oct 2014 (Local Time) from KFRG Reporting Station
Overcast Overcast  
Wind Chill: 58°   Ceiling: 1000
Heat Index: 58°   Visibility: 10mi
Dew Point: 55°   Wind: 13mph
Humidity: 90%   Direction: 40°NE
Pressure: 29.87"   Gusts: NA
Location:  40.9096°N, 73.3231°W
Report Text: KFRG 220653Z AUTO 04011KT 10SM BKN010 OVC013 14/13 A2987 RMK AO2 LTG DSNT SW RAE05 CIG 007V012 SLP116 P0001 T01440128
Loading
Personal Weather Stations






























Interactive Weather Map
Tropical Storm Tracking
New forecast layout! Learn more

10-Day Weather Forecast

Advertisements
Track Severe Weather on mobile